Weather observations for the past three days for
Canton, Cherokee County Airport
Imperial (Metric)
Date Time (edt) Wind (mph) Vis. (mi.) Weather Sky Cond. Temperature (ºF) Relative Humidity Wind Chill (°F) Heat Index (°F) Pressure Precipitation (in)
Air Dwpt 6 hour altimeter (in) sea level (mb) 1 hr 3 hr 6 hr
Max. Min.
09 13:55 W 8 10.00 Mostly Cloudy BKN021 68 57.6 68.9 55.8 69% 29.92 0.0 0.01
09 13:35 SW 7 10.00 Mostly Cloudy BKN023 BKN027 65.3 58.3 78% 29.92 0.0
09 13:15 NW 5 10.00 Overcast SCT009 SCT014 OVC021 64 59 84% 29.93 0.0
09 12:55 NW 3 10.00 Overcast BKN007 BKN012 OVC025 63.1 59.9 89% 29.93 0.0
09 12:35 W 5 7.00 Fog/Mist BKN007 OVC016 62.4 60.1 92% 29.95 0.0
09 12:15 W 6 5.00 Fog/Mist OVC005 61.7 59.9 94% 29.94 0.0
09 11:55 W 5 2.00 Fog/Mist OVC005 61 59.9 96% 29.94 0.0
09 11:35 W 3 3.50 Fog/Mist OVC005 60.8 59.5 96% 29.94 0.0
09 11:15 Calm 1.75 Fog/Mist OVC005 60.1 59.4 97% 29.95 0.0
09 10:55 Calm 3.00 Fog/Mist OVC007 60.1 58.5 94% 29.95 0.0 0.01
09 10:35 Calm 5.00 Fog/Mist OVC009 60.3 57.7 91% 29.95 0.0
09 10:15 Calm 10.00 Overcast OVC009 60.1 56.8 89% 29.94 0.0
09 09:55 Calm 10.00 Overcast OVC011 59 56.3 91% 29.93 0.0
09 09:35 Calm 10.00 Overcast OVC011 58.3 55.8 91% 29.92 0.0
09 09:15 Calm 10.00 Overcast OVC011 57.4 55.2 93% 29.92 0.0
09 08:55 Calm 10.00 Overcast OVC011 56.5 55.2 96% 29.92 0.0 0.01
09 08:35 Calm 10.00 Overcast OVC011 57 55.2 94% 29.92 0.0
09 08:15 Calm 10.00 Overcast OVC011 56.1 54.5 94% 29.91 0.0
09 07:55 Calm 10.00 Overcast OVC013 56.1 54.5 56.3 52.2 94% 29.91 0.0
09 07:35 NE 5 10.00 Overcast OVC013 55.6 53.8 94% 29.92 0.0
09 07:15 N 3 10.00 Overcast OVC015 55 53.2 94% 29.92 0.0
09 06:55 Calm 10.00 Overcast OVC015 54 53.1 97% 29.92 0.0
09 06:35 Calm 10.00 Overcast SCT017 OVC030 53.8 53.1 97% 29.91 0.0
09 06:15 Calm 10.00 Overcast SCT016 OVC030 54.9 53.2 94% 29.91 0.0
09 05:55 Calm 10.00 Overcast BKN018 BKN033 OVC090 54.1 53.4 97% 29.91 0.0
09 05:35 N 3 10.00 Mostly Cloudy SCT020 BKN090 BKN110 52.9 52.3 98% 29.92 0.0
09 05:15 Calm 10.00 Overcast SCT024 BKN080 OVC110 53.8 52.9 97% 29.91 0.0
09 04:55 Calm 10.00 Overcast SCT022 BKN037 OVC050 54.3 53.2 96% 29.92 0.0
09 04:35 Calm 10.00 Overcast BKN024 OVC037 54.5 53.6 97% 29.92 0.0
09 03:55 NW 3 10.00 Overcast OVC022 53.4 52.9 98% 29.92 0.0
09 03:35 Calm 10.00 Mostly Cloudy BKN022 54.7 53.2 95% 29.91 0.0
09 03:15 NE 5 10.00 Partly Cloudy SCT002 SCT024 53.4 53.2 99% 29.91 0.0
09 02:55 N 3 2.00 Fog/Mist CLR 53.8 52.9 97% 29.91 0.0
09 02:35 Calm 10.00 Mostly Cloudy SCT022 BKN060 54.3 53.4 97% 29.92 0.0
09 02:15 Calm 10.00 Overcast BKN022 OVC060 55.4 54 95% 29.94 0.0
09 01:55 Calm 10.00 Overcast OVC024 54.7 54 63 53.8 97% 29.95 0.0 0.01 0.01
09 01:35 Calm 10.00 Mostly Cloudy SCT024 BKN055 54.5 53.1 95% 29.96 0.0 0.01
09 01:15 Calm 10.00 Partly Cloudy SCT065 55 53.6 95% 29.95 0.0 0.01
09 00:55 Calm 10.00 Partly Cloudy SCT065 55.4 54.1 96% 29.95 0.0
09 00:35 Calm 10.00 Fair CLR 56.1 54.3 94% 29.95 0.0
09 00:15 NE 3 10.00 Fair CLR 58.1 54 86% 29.95 0.0
08 23:55 NE 3 10.00 Fair CLR 57.9 54.5 88% 29.97 0.0
08 23:35 Calm 10.00 Fair CLR 57.7 54.5 89% 29.97 0.0
08 23:15 Calm 10.00 Fair CLR 58.5 54.7 87% 29.98 0.0
08 22:55 Calm 10.00 Partly Cloudy SCT034 58.1 55.9 93% 29.98 0.0
08 22:35 Calm 10.00 Mostly Cloudy BKN036 59 55.4 88% 29.98 0.0
08 22:15 Calm 10.00 Mostly Cloudy BKN040 58.6 56.8 94% 29.98 0.0
08 21:55 Calm 10.00 Overcast OVC040 59.9 56.7 89% 29.98 0.0
08 21:35 Calm 10.00 Overcast OVC042 61 54.9 80% 29.97 0.0
08 21:15 Calm 10.00 Partly Cloudy SCT042 61.5 54.3 77% 29.96 0.0
08 20:35 Calm 10.00 Fair CLR 61.3 55.6 81% 29.96 0.0
08 20:15 Calm 10.00 Fair CLR 61.7 55.2 79% 29.97 0.0
08 19:55 Calm 10.00 Fair CLR 62.6 53.1 71.1 62.6 71% 29.96 0.0 0.02
08 19:35 Calm 10.00 Fair CLR 64.2 51.1 63% 29.96 0.0
08 19:15 Calm 10.00 Fair CLR 65.1 51.4 61% 29.96 0.0
08 18:55 Calm 10.00 Fair CLR 65.3 52.7 64% 29.96 0.0 0.01
08 18:15 Calm 10.00 Fair CLR 66 49.3 55% 29.97 0.0 0.01
08 17:55 S 6 10.00 Fair CLR 66.4 48.6 53% 29.97 0.0
08 17:35 S 6 10.00 Fair CLR 66.7 47.7 50% 29.96 0.0
08 17:15 S 8 10.00 Fair CLR 67.3 47.5 49% 29.97 0.0
08 16:55 S 5 10.00 Fair CLR 67.6 47.5 49% 29.96 0.0 0.01
08 16:35 S 5 10.00 Fair CLR 67.8 46.4 46% 29.97 0.0
08 16:15 S 5 10.00 Fair CLR 68.4 45.7 44% 29.97 0.0
08 15:55 SE 5 10.00 Fair CLR 68.9 48 47% 29.97 0.0
08 15:35 S 5 10.00 Fair CLR 69.3 46.8 45% 29.99 0.0
08 15:15 SE 3 10.00 Fair CLR 69.1 47.1 46% 30 0.0
08 14:55 S 5 10.00 Fair CLR 70.2 47.8 45% 30 0.0 0.01
08 14:35 SE 6 10.00 Fair CLR 69.1 45.3 43% 30.01 0.0
08 14:15 SW 5 10.00 Fair CLR 70.2 49.6 48% 30.02 0.0
08 13:55 S 5 10.00 Fair CLR 68.9 47.1 70.5 48 46% 30.02 0.0 0.05
08 13:35 NE 3 10.00 Fair CLR 66.7 46.4 48% 30.03 0.0
08 13:15 S 8 10.00 Partly Cloudy SCT043 68.2 48.4 49% 30.04 0.0
08 12:55 SW 6 10.00 Fair CLR 67.5 47.7 49% 30.04 0.0 0.01
08 12:35 S 3 10.00 Fair CLR 66.2 45.7 48% 30.06 0.0
08 12:15 SW 5 10.00 Fair CLR 67.8 47.5 48% 30.07 0.0
08 11:55 S 3 10.00 Partly Cloudy SCT002 65.8 48.4 53% 30.07 0.0 0.01
08 11:35 E 7 10.00 Fair CLR 65.1 50 58% 30.08 0.0 0.01
08 11:15 E 7 10.00 Fair CLR 63.7 48 57% 30.08 0.0
08 10:55 SE 6 10.00 Fair CLR 62.8 48.6 60% 30.09 0.0 0.01 0.03
08 10:35 SE 5 10.00 Fair CLR 61.7 48.9 63% 30.09 0.0 0.01
08 10:15 SE 5 10.00 Fair CLR 60.4 49.8 68% 30.08 0.0 0.01
08 09:55 Calm 10.00 Fair CLR 59.4 48.7 68% 30.08 0.0 0.01
08 09:15 Calm 10.00 Fair CLR 54.9 48 78% 30.09 0.0 0.01
08 08:35 Calm 10.00 Fair CLR 50.9 48.4 91% 30.08 0.0 0.01
08 08:15 Calm 10.00 Fair CLR 49.8 47.7 92% 30.08 0.0 0.01
08 07:55 NW 5 10.00 Fair CLR 48 46.9 53.6 46.6 96% 47 30.06 0.0 0.01 0.08
08 07:35 N 3 10.00 Fair CLR 47.5 46.8 97% 30.05 0.0 0.01
08 07:15 Calm 10.00 Fair CLR 46.9 46.2 97% 30.05 0.0 0.01
08 06:55 N 5 10.00 Fair CLR 48.4 46.2 92% 47 30.04 0.0 0.01
08 06:35 NE 3 10.00 Fair CLR 47.3 46.2 96% 30.03 0.0 0.01
08 06:15 N 3 10.00 Fair CLR 48.4 45.7 90% 30 0.0 0.01
08 05:55 N 5 10.00 Fair CLR 47.7 46.4 95% 46 30 0.0 0.01
08 05:35 N 5 10.00 Fair CLR 49.8 46.6 89% 49 30 0.0 0.01
08 05:15 N 5 10.00 Fair CLR 49.5 47.1 92% 48 30 0.0
08 04:55 Calm 10.00 Fair CLR 48.9 48 97% 29.99 0.0 0.01 0.05
08 04:35 N 3 10.00 Fair CLR 49.8 48 94% 29.99 0.0
08 04:15 N 5 10.00 Fair CLR 50 48.7 95% 49 29.99 0.0
08 03:35 NW 3 10.00 Fair CLR 51.6 49.6 93% 29.99 0.0 0.01
08 03:15 NW 3 10.00 Fair CLR 52.5 50 91% 30 0.0
08 02:55 W 3 10.00 Fair CLR 52.5 50.9 94% 30 0.0 0.02
08 02:35 Calm 10.00 Fair CLR 51.8 51.1 97% 30 0.0 0.01
08 02:15 Calm 10.00 Fair CLR 53.6 52 94% 30 0.0 0.01
08 01:55 NW 3 10.00 Fair CLR 53.4 52.3 61.3 52.3 96% 30 0.0 0.02 0.15
08 01:35 Calm 10.00 Fair CLR 53.4 52.3 96% 30 0.0 0.02
08 01:15 NW 3 10.00 Fair CLR 54.1 52.5 94% 30 0.0 0.01
08 00:55 W 5 10.00 Fair CLR 55 52.9 92% 30 0.0 0.02
08 00:35 Calm 10.00 Fair CLR 55 53.1 93% 30 0.0 0.02
08 00:15 NW 6 10.00 Fair CLR 56.1 53.2 90% 29.99 0.0 0.01
07 23:55 W 5 10.00 Fair CLR 56.5 53.1 88% 29.99 0.0 0.02
07 23:35 NW 7 10.00 Fair CLR 57 53.1 87% 29.99 0.0 0.01
07 22:55 NW 6 10.00 Fair CLR 58.8 53.1 81% 29.98 0.0 0.03 0.09
07 22:35 NW 3 10.00 Fair CLR 58.3 53.6 85% 29.99 0.0 0.02
07 22:15 W 6 10.00 Fair CLR 59.2 53.6 82% 29.99 0.0 0.01
07 21:55 W 3 10.00 Fair CLR 60.1 53.6 79% 29.98 0.0 0.03
07 21:35 Calm 10.00 Fair CLR 59.9 54 81% 29.97 0.0 0.02
07 21:15 W 3 10.00 Fair CLR 60.6 54.1 79% 29.97 0.0 0.01
07 20:55 Calm 10.00 Fair CLR 60.6 54.7 81% 29.96 0.0 0.03
07 20:35 W 3 10.00 Fair CLR 61 54.7 80% 29.96 0.0 0.02
07 20:15 Calm 10.00 Fair CLR 61.3 54.5 78% 29.96 0.0 0.01
07 19:55 NW 6 10.00 Fair CLR 61.3 54.7 67.3 61.2 79% 29.95 0.0 0.03 0.34
07 19:35 NW 8 10.00 Fair CLR 62.1 54.5 76% 29.95 0.0 0.02
07 19:15 NW 7 10.00 Fair CLR 62.8 54.1 74% 29.95 0.0 0.01
07 18:55 NW 9 10.00 Fair CLR 63.5 53.8 71% 29.94 0.0 0.04
07 18:35 NW 6 10.00 Partly Cloudy SCT040 63.9 54.1 71% 29.94 0.0 0.03
07 18:15 NW 12 G 18 10.00 Mostly Cloudy SCT028 BKN040 64.6 54.1 69% 29.93 0.0 0.02
07 17:55 NW 7 10.00 Mostly Cloudy SCT028 BKN036 64.8 54.7 70% 29.94 0.0 0.05
07 17:35 NW 13 G 18 10.00 Partly Cloudy SCT026 SCT032 65.3 54.7 69% 29.93 0.0 0.04
07 17:15 NW 13 G 16 10.00 Mostly Cloudy SCT026 BKN032 66 54.9 67% 29.92 0.0 0.02
07 16:55 NW 12 10.00 Mostly Cloudy BKN026 BKN032 65.5 55 69% 29.92 0.0 0.06 0.21
07 16:35 NW 10 10.00 Overcast BKN024 OVC032 64.9 55.4 71% 29.91 0.0 0.04
07 16:15 NW 9 10.00 Overcast OVC024 65.8 56.5 72% 29.92 0.0 0.02
07 15:35 W 13 10.00 Mostly Cloudy BKN019 BKN025 64.9 55.9 73% 29.92 0.0 0.05
07 15:15 W 15 10.00 Overcast OVC019 65.7 56.3 72% 29.92 0.0 0.02
07 14:55 NW 10 10.00 Overcast OVC019 64.9 57 76% 29.92 0.0 0.07
07 14:35 W 12 10.00 Overcast SCT017 OVC042 65.8 57.7 75% 29.92 0.0 0.05
07 14:15 W 9 10.00 Overcast SCT010 BKN014 OVC040 64.6 57.4 78% 29.93 0.0 0.02
07 13:55 NW 7 10.00 Overcast SCT006 OVC010 62.4 57 65.3 59.9 83% 29.93 0.0 0.07 0.47
07 13:15 NW 10 G 21 10.00 Overcast OVC010 61.3 57.6 87% 29.94 0.0 0.02
07 12:55 W 12 10.00 Overcast OVC012 63.1 58.3 84% 29.93 0.0 0.09
07 12:35 W 10 10.00 Overcast OVC012 64.6 59.2 83% 29.93 0.0 0.06
07 11:55 W 12 10.00 Overcast OVC012 64.8 59.9 84% 29.92 0.0 0.08
07 11:35 W 10 10.00 Overcast BKN010 OVC016 64.4 60.4 87% 29.91 0.0 0.05
07 11:15 NW 8 10.00 Overcast OVC010 64.2 60.8 89% 29.9 0.0 0.03
07 10:55 NW 7 10.00 Overcast SCT006 OVC012 63.1 61.5 94% 29.9 0.0 0.08 0.22
07 10:35 NW 7 10.00 Overcast OVC006 63 62.1 97% 29.91 0.0 0.05
07 10:15 NW 7 10.00 Overcast OVC010 63.7 62.2 95% 29.9 0.0 0.02
07 09:55 NW 8 10.00 Overcast SCT007 BKN010 OVC037 64 62.4 95% 29.91 0.0 0.08
07 09:35 W 10 10.00 Mostly Cloudy BKN005 BKN026 BKN100 64.2 63 96% 29.91 0.0 0.05
07 09:15 Calm 10.00 Overcast SCT007 OVC100 63.1 62.8 99% 29.89 0.0 0.03
07 08:55 Calm 10.00 Overcast BKN100 OVC120 62.6 62.2 99% 29.88 0.0 0.06
07 08:35 NW 3 10.00 Light Rain SCT050 SCT075 BKN120 61.9 61.9 100% 29.88 0.0 0.04
07 08:15 N 3 7.00 Rain SCT044 BKN080 OVC090 60.8 0 0% 29.87 0.0 0.02
07 07:55 N 8 4.00 Thunderstorm Heavy Rain in Vicinity SCT005 BKN045 OVC090 60.8 0 62.6 61.5 0% 29.88 0.0 0.05 0.28
07 07:35 NW 6 7.00 Light Rain BKN005 BKN023 OVC110 60.8 0 0% 29.88 0.0 0.03
07 06:55 S 3 1.00 Light Rain Fog/Mist BKN003 BKN010 OVC026 60.8 0 0% 29.85 0.0 0.05
07 06:35 NE 6 3.50 Rain Fog/Mist BKN003 OVC009 60.8 0 0% 29.86 0.0 0.03
07 06:15 NW 14 0.75 Heavy Rain Fog/Mist OVC003 62.6 0 0% 29.89 0.0 0.01
07 05:55 E 3 3.50 Rain Fog/Mist BKN003 OVC008 62.6 0 0% 29.84 0.0 0.05
07 05:35 Calm 10.00 Overcast OVC003 62.6 0 0% 29.85 0.0 0.03
07 05:15 SE 6 3.50 Thunderstorm Fog/Mist in Vicinity OVC003 62.6 0 0% 29.86 0.0 0.02
07 04:55 SE 3 2.50 Thunderstorm Light Rain in Vicinity Fog/Mist OVC003 62.6 0 0% 29.85 0.0 0.05 0.14
07 04:35 SE 5 1.75 Fog/Mist BKN003 OVC007 62.6 0 0% 29.88 0.0 0.04
07 04:15 S 5 10.00 Thunderstorm in Vicinity OVC003 62.6 0 0% 29.87 0.0 0.02
07 03:55 NE 6 5.00 Light Rain OVC003 62.6 0 0% 29.88 0.0 0.04
07 03:35 S 3 0.25 Light Rain Fog OVC003 62.6 0 0% 29.88 0.0 0.03
07 03:15 Calm 0.75 Heavy Rain Fog/Mist OVC003 62.6 0 0% 29.9 0.0 0.01
07 02:55 N 5 4.00 Rain BKN003 BKN019 OVC110 62.6 0 0% 29.91 0.0 0.04
07 02:35 SE 5 0.75 Heavy Rain Fog/Mist BKN003 BKN019 OVC037 62.6 0 0% 29.9 0.0 0.03
07 02:15 Calm 2.50 Heavy Rain Fog/Mist SCT003 SCT007 OVC037 62.6 0 0% 29.93 0.0 0.01
07 01:55 Calm 7.00 Light Rain OVC003 62.6 0 66.7 62.4 0% 29.92 0.0 0.05 0.12
07 01:35 SE 5 0.15 Light Rain Fog OVC003 62.6 0 0% 29.93 0.0 0.03
07 01:15 E 3 0.50 Thunderstorm Rain in Vicinity Fog OVC005 62.6 0 0% 29.92 0.0 0.02
07 00:35 Calm 7.00 Thunderstorm Heavy Rain BKN003 OVC036 62.6 0 0% 29.95 0.0 0.02
07 00:15 S 3 4.00 Thunderstorm Haze in Vicinity SCT003 OVC036 62.6 0 0% 29.94 0.0 0.01
06 23:55 Calm 10.00 Thunderstorm BKN003 OVC038 62.6 0 0% 29.94 0.0 0.02
06 23:35 SE 5 0.15 Fog OVC003 62.6 0 0% 29.92 0.0 0.01
06 23:15 Calm 2.00 Fog/Mist SCT003 BKN034 OVC045 62.6 0 0% 29.94 0.0
06 22:55 S 5 1.25 Thunderstorm Light Rain in Vicinity Fog/Mist SCT003 BKN038 OVC050 62.6 0 0% 29.96 0.0 0.02 0.03
06 22:35 Calm 2.00 Thunderstorm Heavy Rain in Vicinity Fog/Mist BKN040 OVC046 62.8 62.8 100% 29.96 0.0 0.01
06 21:55 Calm 3.50 Thunderstorm Heavy Rain in Vicinity Fog/Mist OVC036 63 62.8 99% 29.93 0.0 0.01
06 21:35 NE 7 7.00 Thunderstorm Light Rain in Vicinity Fog/Mist SCT004 SCT010 OVC036 62.8 62.4 99% 29.94 0.0 0.01
06 21:15 N 7 2.50 Thunderstorm Rain in Vicinity Fog/Mist SCT004 BKN007 OVC030 63 62.6 99% 29.96 0.0 0.01
06 20:55 N 8 2.50 Thunderstorm Heavy Rain Fog/Mist SCT004 SCT016 OVC031 63.1 62.8 99% 29.94 0.0
06 20:35 N 10 2.50 Thunderstorm Heavy Rain Fog/Mist OVC016 63.5 63 98% 29.95 0.0
06 20:15 N 3 2.00 Thunderstorm Heavy Rain Fog/Mist OVC018 64.8 62.6 93% 29.94 0.0
06 19:55 Calm 10.00 Rain SCT016 BKN021 OVC045 66.4 63 77.7 65.8 89% 29.94 0.0
06 19:35 Calm 10.00 Thunderstorm Light Rain SCT025 BKN032 OVC043 66.6 62.1 86% 29.92 0.0
06 19:15 NW 6 10.00 Thunderstorm BKN027 OVC036 67.5 61.2 80% 29.92 0.0
06 18:55 N 8 10.00 Thunderstorm Light Rain in Vicinity OVC025 67.6 62.1 82% 29.91 0.0
06 18:35 N 9 10.00 Overcast BKN024 OVC030 69.6 62.1 77% 29.93 0.0
06 18:15 W 8 10.00 Overcast BKN029 OVC044 74.8 65.3 72% 29.92 0.0
06 17:55 SW 14 G 20 10.00 Overcast SCT031 BKN065 OVC120 75.7 65.3 70% 77 29.92 0.0
06 17:35 SW 10 10.00 Overcast SCT032 BKN100 OVC120 75.9 64.8 68% 78 29.9 0.0
06 17:15 SW 8 10.00 Overcast SCT036 BKN060 OVC120 76.6 65.3 68% 78 29.91 0.0
06 16:55 SW 9 10.00 Overcast BKN035 BKN042 OVC049 76.1 65.1 69% 78 29.91 0.0
06 16:35 S 8 10.00 Overcast BKN035 OVC045 75.9 65.1 69% 78 29.92 0.0
06 16:15 SW 8 10.00 Overcast OVC037 76.6 65.3 68% 78 29.93 0.0
06 15:55 S 5 10.00 Overcast BKN037 BKN055 OVC075 76.6 66 70% 78 29.93 0.0
06 15:35 S 5 10.00 Overcast OVC036 76.5 66.7 72% 78 29.95 0.0
06 15:15 SW 3 10.00 Overcast BKN032 OVC038 74.1 67.1 79% 29.96 0.0
06 14:55 Calm 7.00 Thunderstorm Light Rain in Vicinity BKN030 OVC036 71.8 66.9 85% 29.97 0.0
06 14:35 SW 3 10.00 Light Rain OVC030 72.7 66.2 80% 29.98 0.0
06 14:15 W 6 10.00 Overcast OVC030 73.6 64.2 73% 29.98 0.0
Date Time (edt) Wind (mph) Vis. (mi.) Weather Sky Cond. Air Dwpt Max. Min. Relative Humidity Wind Chill (°F) Heat Index (°F) altimeter (in) sea level (mb) 1 hr 3 hr 6 hr
6 hour
Temperature (ºF) Pressure Precipitation (in)